Terminal Aerodrome Forecast
Issued by NWS

Home | Current Version | Previous Version | Text Only | Print | Product List | Glossary On
Versions: 1 2 3 4 5 6 7 8 9 10 11 12 13 14 15 16 17
000
FTUS45 KRIW 010526
TAFJAC
TAF
KJAC 010526Z 0106/0206 36006KT P6SM VCFG SCT005
      TEMPO 0110/0114 1SM BR BKN004
     FM011600 18007KT P6SM SCT080
     FM012000 21010G18KT P6SM VCTS SCT060CB BKN080
     FM020200 VRB05KT P6SM SCT080 BKN100
      AMD LTD TO CLD VIS AND WIND=

USA.gov is the U.S. government's official web portal to all federal, state and local government web resources and services.